createdAt,value
2018-10-16T00:00:43.365Z,9.25
2018-10-16T00:03:11.655Z,7.23
2018-10-16T00:05:39.678Z,7.20
2018-10-16T00:08:08.125Z,7.97
2018-10-16T00:10:40.713Z,8.45
2018-10-16T00:13:10.868Z,8.63
2018-10-16T00:15:39.273Z,7.30
2018-10-16T00:18:09.025Z,8.18
2018-10-16T00:20:37.141Z,6.70
2018-10-16T00:23:06.373Z,8.28
2018-10-16T00:25:35.054Z,6.43
2018-10-16T00:28:03.505Z,7.73
2018-10-16T00:30:31.968Z,7.90
2018-10-16T00:33:00.480Z,6.92
2018-10-16T00:35:28.568Z,7.27
2018-10-16T00:37:56.985Z,6.43
2018-10-16T00:40:25.088Z,6.43
2018-10-16T00:42:53.532Z,6.53
2018-10-16T00:45:22.010Z,7.73
2018-10-16T00:47:50.457Z,7.07
2018-10-16T00:50:18.892Z,8.40
2018-10-16T00:52:47.317Z,8.90
2018-10-16T00:55:15.755Z,5.90
2018-10-16T00:57:44.201Z,8.40
2018-10-16T01:00:13.293Z,7.47
2018-10-16T01:02:42.744Z,8.73
2018-10-16T01:05:11.827Z,7.93
2018-10-16T01:07:40.794Z,7.60
2018-10-16T01:10:10.104Z,11.17
2018-10-16T01:12:39.322Z,8.30
2018-10-16T01:15:09.202Z,6.67
2018-10-16T01:17:38.085Z,9.00
2018-10-16T01:20:08.394Z,6.67
2018-10-16T01:22:36.998Z,8.67
2018-10-16T01:25:06.875Z,6.67
2018-10-16T01:27:35.314Z,6.30
2018-10-16T01:30:03.838Z,7.20
2018-10-16T01:32:32.285Z,8.13
2018-10-16T01:35:00.377Z,8.83
2018-10-16T01:37:28.845Z,7.73
2018-10-16T01:39:57.276Z,7.87
2018-10-16T01:42:25.818Z,6.07
2018-10-16T01:44:54.257Z,6.67
2018-10-16T01:47:23.073Z,6.83
2018-10-16T01:49:51.586Z,7.47
2018-10-16T01:52:20.855Z,7.13
2018-10-16T01:54:49.272Z,7.10
2018-10-16T01:57:17.680Z,7.20
2018-10-16T01:59:46.353Z,6.83
2018-10-16T02:02:14.810Z,10.47
2018-10-16T02:04:42.924Z,7.73
2018-10-16T02:07:11.308Z,6.20
2018-10-16T02:09:39.749Z,7.03
2018-10-16T02:12:08.165Z,7.43
2018-10-16T02:14:36.625Z,7.97
2018-10-16T02:17:05.257Z,8.87
2018-10-16T02:19:33.692Z,7.27
2018-10-16T02:22:02.103Z,7.90
2018-10-16T02:24:30.533Z,6.73
2018-10-16T02:26:58.929Z,8.60
2018-10-16T02:29:27.328Z,8.07
2018-10-16T02:31:55.845Z,8.33
2018-10-16T02:34:23.995Z,6.40
2018-10-16T02:36:52.424Z,6.27
2018-10-16T02:39:20.856Z,8.50
2018-10-16T02:41:49.248Z,6.80
2018-10-16T02:44:17.763Z,7.73
2018-10-16T02:46:46.165Z,6.07
2018-10-16T02:49:14.850Z,9.77
2018-10-16T02:51:43.273Z,6.00
2018-10-16T02:54:11.715Z,9.20
2018-10-16T02:56:39.816Z,7.20
2018-10-16T02:59:08.270Z,7.70
2018-10-16T03:01:36.705Z,7.77
2018-10-16T03:04:05.381Z,6.67
2018-10-16T03:06:33.780Z,7.77
2018-10-16T03:09:02.240Z,8.37
2018-10-16T03:11:30.641Z,7.53
2018-10-16T03:13:59.053Z,7.93
2018-10-16T03:16:27.529Z,7.63
2018-10-16T03:18:55.974Z,6.80
2018-10-16T03:21:24.492Z,4.93
2018-10-16T03:23:52.929Z,6.00
2018-10-16T03:26:21.330Z,6.10
2018-10-16T03:28:49.804Z,5.90
2018-10-16T03:31:18.250Z,6.37
2018-10-16T03:33:46.817Z,6.60
2018-10-16T03:36:15.281Z,8.47
2018-10-16T03:38:43.684Z,7.60
2018-10-16T03:41:12.248Z,8.00
2018-10-16T03:43:40.660Z,6.10
2018-10-16T03:46:09.127Z,10.37
2018-10-16T03:48:37.541Z,8.20
2018-10-16T03:51:06.013Z,7.77
2018-10-16T03:53:34.666Z,8.40
2018-10-16T03:56:03.093Z,6.93
2018-10-16T03:58:31.481Z,8.10
2018-10-16T04:00:59.948Z,8.13
2018-10-16T04:03:28.388Z,6.20
2018-10-16T04:05:56.816Z,6.93
2018-10-16T04:08:25.192Z,10.00
2018-10-16T04:10:53.318Z,6.50
2018-10-16T04:13:21.846Z,7.33
2018-10-16T04:15:50.321Z,9.53
2018-10-16T04:18:18.758Z,6.50
2018-10-16T04:20:47.216Z,8.17
2018-10-16T04:23:15.605Z,6.90
2018-10-16T04:25:44.060Z,8.63
2018-10-16T04:28:12.465Z,5.93
2018-10-16T04:30:41.333Z,10.10
2018-10-16T04:33:10.652Z,7.40
2018-10-16T04:35:39.070Z,7.90
2018-10-16T04:38:07.465Z,9.87
2018-10-16T04:40:35.881Z,8.23
2018-10-16T04:43:04.287Z,7.87
2018-10-16T04:45:32.410Z,6.50
2018-10-16T04:48:00.827Z,8.00
2018-10-16T04:50:29.401Z,9.23
2018-10-16T04:52:57.795Z,7.50
2018-10-16T04:55:26.225Z,8.20
2018-10-16T04:57:54.629Z,8.87
2018-10-16T05:00:23.124Z,7.37
2018-10-16T05:02:51.264Z,8.77
2018-10-16T05:05:23.178Z,7.43
2018-10-16T05:07:52.152Z,8.87
2018-10-16T05:10:21.485Z,10.90
2018-10-16T05:12:49.854Z,8.73
2018-10-16T05:15:27.208Z,9.30
2018-10-16T05:17:55.989Z,7.90
2018-10-16T05:20:24.502Z,8.53
2018-10-16T05:22:53.190Z,7.63
2018-10-16T05:25:21.667Z,7.40
2018-10-16T05:27:49.961Z,17.53
2018-10-16T05:30:18.403Z,8.90
2018-10-16T05:32:47.956Z,9.13
2018-10-16T05:35:16.380Z,9.27
2018-10-16T05:37:44.805Z,10.23
2018-10-16T05:40:13.292Z,7.93
2018-10-16T05:42:41.728Z,7.03
2018-10-16T05:45:11.944Z,10.27
2018-10-16T05:47:41.593Z,8.07
2018-10-16T05:50:10.397Z,10.07
2018-10-16T05:52:38.849Z,10.87
2018-10-16T05:55:07.501Z,7.00
2018-10-16T05:57:36.268Z,12.53
2018-10-16T06:00:16.908Z,9.27
2018-10-16T06:02:46.433Z,7.30
2018-10-16T06:05:14.840Z,10.07
2018-10-16T06:07:44.006Z,7.73
2018-10-16T06:10:12.697Z,17.53
2018-10-16T06:12:41.141Z,10.87
2018-10-16T06:15:10.640Z,12.00
2018-10-16T06:17:39.101Z,13.93
2018-10-16T06:20:09.841Z,10.13
2018-10-16T06:22:38.298Z,9.83
2018-10-16T06:25:07.436Z,12.73
2018-10-16T06:27:35.583Z,14.80
2018-10-16T06:30:04.214Z,12.70
2018-10-16T06:32:32.620Z,7.40
2018-10-16T06:35:01.147Z,11.63
2018-10-16T06:37:29.837Z,5.97
2018-10-16T06:39:58.701Z,7.58
2018-10-16T06:42:27.152Z,15.78
2018-10-16T06:44:55.609Z,11.70
2018-10-16T06:47:24.366Z,13.43
2018-10-16T06:49:52.701Z,8.63
2018-10-16T06:52:21.222Z,9.73
2018-10-16T06:54:49.831Z,7.20
2018-10-16T06:57:18.274Z,5.37
2018-10-16T06:59:46.884Z,12.30
2018-10-16T07:02:15.359Z,7.25
2018-10-16T07:04:43.481Z,14.90
2018-10-16T07:07:12.354Z,8.63
2018-10-16T07:09:41.162Z,7.12
2018-10-16T07:12:09.967Z,7.10
2018-10-16T07:14:38.396Z,9.88
2018-10-16T07:17:06.897Z,7.05
2018-10-16T07:19:35.955Z,8.80
2018-10-16T07:22:07.853Z,5.75
2018-10-16T07:24:36.544Z,7.10
2018-10-16T07:27:05.361Z,5.75
2018-10-16T07:29:33.976Z,7.62
2018-10-16T07:32:02.401Z,8.03
2018-10-16T07:34:30.808Z,5.80
2018-10-16T07:36:59.198Z,5.65
2018-10-16T07:39:27.617Z,6.90
2018-10-16T07:41:56.265Z,7.40
2018-10-16T07:44:24.693Z,6.90
2018-10-16T07:46:53.097Z,4.95
2018-10-16T07:49:21.535Z,6.92
2018-10-16T07:51:49.649Z,7.15
2018-10-16T07:54:18.104Z,6.08
2018-10-16T07:56:46.588Z,5.20
2018-10-16T07:59:15.108Z,5.03
2018-10-16T08:01:43.905Z,5.95
2018-10-16T08:04:12.108Z,7.92
2018-10-16T08:06:40.537Z,5.85
2018-10-16T08:09:11.313Z,6.85
2018-10-16T08:11:44.165Z,5.05
2018-10-16T08:14:13.477Z,6.17
2018-10-16T08:16:42.148Z,9.18
2018-10-16T08:19:10.604Z,7.83
2018-10-16T08:21:39.009Z,7.17
2018-10-16T08:24:07.739Z,7.10
2018-10-16T08:26:36.141Z,5.30
2018-10-16T08:29:05.161Z,7.78
2018-10-16T08:31:33.589Z,6.08
2018-10-16T08:34:02.091Z,8.60
2018-10-16T08:36:31.278Z,7.62
2018-10-16T08:39:32.780Z,7.12
2018-10-16T08:43:26.215Z,8.53
2018-10-16T08:46:06.002Z,6.53
2018-10-16T08:48:46.002Z,5.67
2018-10-16T08:51:25.874Z,7.62
2018-10-16T08:53:54.417Z,7.47
2018-10-16T08:56:22.837Z,6.33
2018-10-16T08:58:51.275Z,5.90
2018-10-16T09:01:19.825Z,8.90
2018-10-16T09:03:48.273Z,7.62
2018-10-16T09:06:16.813Z,7.37
2018-10-16T09:08:45.233Z,9.73
2018-10-16T09:11:13.657Z,7.50
2018-10-16T09:13:42.142Z,7.80
2018-10-16T09:16:10.637Z,7.95
2018-10-16T09:18:39.053Z,7.65
2018-10-16T09:21:07.940Z,4.92
2018-10-16T09:23:36.464Z,5.90
2018-10-16T09:26:05.185Z,6.67
2018-10-16T09:28:33.633Z,5.55
2018-10-16T09:31:02.094Z,7.15
2018-10-16T09:33:30.685Z,6.08
2018-10-16T09:35:58.844Z,7.22
2018-10-16T09:38:27.286Z,6.28
2018-10-16T09:40:55.685Z,7.42
2018-10-16T09:43:24.216Z,5.65
2018-10-16T09:45:52.630Z,8.68
2018-10-16T09:48:21.091Z,5.35
2018-10-16T09:50:49.573Z,7.17
2018-10-16T09:53:18.155Z,5.00
2018-10-16T09:55:46.765Z,4.62
2018-10-16T09:58:15.189Z,7.45
2018-10-16T10:00:48.986Z,4.58
2018-10-16T10:03:17.400Z,5.08
2018-10-16T10:05:45.816Z,5.00
2018-10-16T10:08:14.277Z,5.08
2018-10-16T10:10:42.701Z,4.95
2018-10-16T10:13:11.120Z,5.00
2018-10-16T10:15:39.621Z,4.83
2018-10-16T10:18:08.072Z,5.12
2018-10-16T10:20:36.519Z,4.40
2018-10-16T10:23:05.708Z,4.70
2018-10-16T10:25:34.146Z,4.80
2018-10-16T10:28:02.593Z,6.37
2018-10-16T10:30:30.989Z,5.40
2018-10-16T10:32:59.421Z,5.15
2018-10-16T10:35:27.904Z,4.40
2018-10-16T10:37:56.305Z,4.28
2018-10-16T10:40:24.731Z,5.80
2018-10-16T10:42:53.169Z,4.37
2018-10-16T10:45:21.651Z,4.50
2018-10-16T10:47:50.173Z,3.87
2018-10-16T10:50:18.692Z,4.47
2018-10-16T10:52:47.037Z,4.72
2018-10-16T10:55:15.589Z,5.08
2018-10-16T10:57:44.037Z,8.40
2018-10-16T11:00:14.004Z,7.37
2018-10-16T11:02:44.149Z,4.70
2018-10-16T11:05:12.589Z,5.28
2018-10-16T11:07:41.053Z,5.75
2018-10-16T11:10:11.185Z,6.65
2018-10-16T11:12:39.843Z,5.00
2018-10-16T11:15:08.636Z,5.12
2018-10-16T11:17:37.613Z,5.35
2018-10-16T11:20:06.234Z,4.70
2018-10-16T11:22:34.630Z,4.72
2018-10-16T11:25:03.254Z,5.70
2018-10-16T11:27:31.731Z,4.72
2018-10-16T11:30:00.182Z,6.87
2018-10-16T11:32:28.629Z,4.70
2018-10-16T11:34:56.752Z,4.70
2018-10-16T11:37:25.146Z,4.83
2018-10-16T11:39:53.565Z,4.30
2018-10-16T11:42:21.957Z,5.53
2018-10-16T11:44:50.437Z,5.97
2018-10-16T11:47:18.925Z,5.53
2018-10-16T11:49:47.044Z,4.67
2018-10-16T11:52:15.571Z,5.53
2018-10-16T11:54:43.900Z,7.70
2018-10-16T11:57:12.433Z,5.03
2018-10-16T11:59:40.925Z,5.90
2018-10-16T12:03:38.543Z,4.58
2018-10-16T12:06:07.442Z,7.53
2018-10-16T12:08:35.865Z,4.55
2018-10-16T12:11:04.601Z,4.75
2018-10-16T12:13:33.029Z,4.62
2018-10-16T12:16:01.730Z,4.10
2018-10-16T12:18:40.448Z,3.98
2018-10-16T12:21:14.797Z,8.58
2018-10-16T12:23:43.257Z,4.95
2018-10-16T12:26:11.623Z,5.12
2018-10-16T12:28:40.173Z,5.53
2018-10-16T12:31:08.794Z,5.20
2018-10-16T12:33:37.529Z,2.92
2018-10-16T12:36:05.705Z,4.03
2018-10-16T12:38:34.183Z,4.17
2018-10-16T12:41:02.826Z,6.87
2018-10-16T12:43:31.037Z,3.60
2018-10-16T12:45:59.547Z,3.62
2018-10-16T12:48:28.481Z,10.05
2018-10-16T12:50:56.977Z,10.60
2018-10-16T12:53:25.899Z,5.42
2018-10-16T12:55:54.625Z,21.82
2018-10-16T12:58:23.911Z,10.28
2018-10-16T13:00:52.356Z,6.58
2018-10-16T13:03:20.839Z,3.62
2018-10-16T13:05:49.223Z,5.12
2018-10-16T13:08:17.840Z,6.08
2018-10-16T13:10:46.265Z,12.55
2018-10-16T13:13:14.667Z,6.87
2018-10-16T13:15:42.785Z,3.98
2018-10-16T13:18:11.253Z,6.70
2018-10-16T13:20:39.380Z,15.53
2018-10-16T13:23:07.871Z,21.35
2018-10-16T13:25:36.294Z,22.37
2018-10-16T13:28:04.835Z,8.20
2018-10-16T13:30:33.193Z,4.03
2018-10-16T13:33:01.589Z,4.05
2018-10-16T13:35:30.021Z,3.92
2018-10-16T13:37:58.475Z,7.15
2018-10-16T13:40:27.149Z,6.85
2018-10-16T13:42:55.657Z,4.10
2018-10-16T13:45:24.028Z,4.22
2018-10-16T13:47:52.430Z,4.67
2018-10-16T13:50:20.883Z,5.28
2018-10-16T13:52:49.033Z,4.87
2018-10-16T13:55:17.423Z,5.80
2018-10-16T13:57:45.755Z,3.33
2018-10-16T14:00:15.805Z,14.87
2018-10-16T14:02:45.720Z,4.75
2018-10-16T14:05:14.490Z,5.90
2018-10-16T14:07:43.409Z,7.40
2018-10-16T14:10:13.175Z,7.25
2018-10-16T14:12:43.646Z,8.25
2018-10-16T14:15:12.701Z,8.88
2018-10-16T14:17:41.313Z,5.58
2018-10-16T14:20:09.859Z,9.98
2018-10-16T14:22:39.485Z,6.00
2018-10-16T14:25:09.164Z,6.95
2018-10-16T14:27:38.078Z,5.75
2018-10-16T14:30:07.941Z,8.53
2018-10-16T14:32:36.443Z,4.22
2018-10-16T14:35:05.609Z,7.08
2018-10-16T14:37:34.017Z,8.00
2018-10-16T14:40:02.756Z,5.40
2018-10-16T14:42:31.146Z,5.97
2018-10-16T14:44:59.557Z,7.65
2018-10-16T14:47:27.997Z,4.78
2018-10-16T14:49:56.435Z,5.47
2018-10-16T14:52:25.089Z,5.92
2018-10-16T14:54:53.513Z,11.50
2018-10-16T14:57:21.953Z,6.08
2018-10-16T14:59:50.441Z,6.40
2018-10-16T15:02:18.881Z,8.65
2018-10-16T15:04:47.260Z,6.42
2018-10-16T15:07:15.679Z,6.97
2018-10-16T15:09:44.109Z,9.20
2018-10-16T15:12:13.204Z,4.55
2018-10-16T15:14:41.637Z,8.05
2018-10-16T15:17:10.113Z,5.87
2018-10-16T15:19:38.520Z,8.23
2018-10-16T15:22:06.665Z,6.03
2018-10-16T15:24:35.112Z,7.75
2018-10-16T15:27:03.569Z,7.40
2018-10-16T15:29:32.001Z,4.97
2018-10-16T15:32:00.491Z,10.85
2018-10-16T15:34:28.921Z,5.70
2018-10-16T15:36:57.335Z,9.40
2018-10-16T15:39:25.461Z,12.28
2018-10-16T15:41:53.866Z,9.40
2018-10-16T15:44:22.561Z,8.88
2018-10-16T15:46:51.029Z,6.37
2018-10-16T15:49:21.025Z,7.42
2018-10-16T15:51:49.417Z,10.65
2018-10-16T15:54:17.850Z,6.83
2018-10-16T15:56:46.252Z,10.43
2018-10-16T15:59:14.666Z,13.22
2018-10-16T16:01:43.064Z,20.62
2018-10-16T16:04:11.262Z,22.55
2018-10-16T16:06:39.684Z,21.97
2018-10-16T16:09:08.846Z,21.05
2018-10-16T16:11:37.265Z,22.07
2018-10-16T16:14:05.993Z,12.55
2018-10-16T16:16:34.566Z,14.55
2018-10-16T16:19:03.401Z,15.23
2018-10-16T16:21:31.801Z,8.73
2018-10-16T16:24:00.282Z,10.50
2018-10-16T16:26:28.665Z,7.12
2018-10-16T16:28:57.167Z,10.03
2018-10-16T16:31:25.760Z,13.48
2018-10-16T16:33:54.224Z,16.52
2018-10-16T16:36:22.657Z,19.10
2018-10-16T16:38:51.145Z,7.92
2018-10-16T16:41:19.252Z,19.48
2018-10-16T16:43:47.481Z,10.80
2018-10-16T16:46:15.840Z,15.60
2018-10-16T16:48:44.278Z,13.00
2018-10-16T16:51:12.722Z,31.37
2018-10-16T16:53:40.841Z,20.90
2018-10-16T16:56:09.333Z,22.55
2018-10-16T16:58:37.761Z,16.87
2018-10-16T17:01:06.236Z,19.15
2018-10-16T17:03:34.680Z,20.08
2018-10-16T17:06:02.909Z,15.38
2018-10-16T17:08:31.372Z,20.12
2018-10-16T17:10:59.861Z,16.10
2018-10-16T17:13:27.993Z,9.40
2018-10-16T17:15:56.393Z,10.38
2018-10-16T17:18:24.884Z,14.68
2018-10-16T17:20:53.312Z,10.15
2018-10-16T17:23:21.715Z,7.58
2018-10-16T17:25:50.463Z,9.65
2018-10-16T17:28:18.566Z,8.98
2018-10-16T17:30:46.992Z,6.53
2018-10-16T17:33:15.599Z,10.28
2018-10-16T17:35:44.029Z,8.48
2018-10-16T17:38:12.429Z,15.15
2018-10-16T17:40:40.955Z,17.37
2018-10-16T17:43:09.370Z,12.43
2018-10-16T17:45:37.796Z,9.68
2018-10-16T17:48:05.974Z,11.80
2018-10-16T17:50:34.542Z,9.70
2018-10-16T17:53:03.149Z,9.00
2018-10-16T17:55:31.585Z,8.98
2018-10-16T17:58:00.048Z,8.70
2018-10-16T18:00:28.482Z,9.78
2018-10-16T18:02:56.914Z,11.93
2018-10-16T18:05:25.546Z,9.13
2018-10-16T18:07:54.381Z,12.95
2018-10-16T18:10:24.433Z,12.95
2018-10-16T18:12:52.863Z,9.93
2018-10-16T18:15:20.995Z,18.30
2018-10-16T18:17:49.433Z,15.75
2018-10-16T18:20:17.865Z,14.33
2018-10-16T18:22:46.426Z,12.58
2018-10-16T18:25:14.933Z,12.53
2018-10-16T18:27:44.102Z,10.68
2018-10-16T18:30:13.136Z,12.82
2018-10-16T18:32:41.896Z,10.68
2018-10-16T18:35:10.903Z,11.65
2018-10-16T18:37:40.005Z,11.20
2018-10-16T18:40:09.805Z,10.30
2018-10-16T18:42:38.553Z,9.15
2018-10-16T18:45:08.250Z,8.23
2018-10-16T18:47:36.649Z,8.85
2018-10-16T18:50:05.684Z,8.63
2018-10-16T18:52:34.087Z,8.28
2018-10-16T18:55:02.905Z,8.78
2018-10-16T18:57:31.317Z,10.03
2018-10-16T18:59:59.892Z,9.70
2018-10-16T19:02:27.987Z,9.53
2018-10-16T19:04:56.428Z,9.93
2018-10-16T19:07:24.865Z,8.70
2018-10-16T19:09:53.283Z,7.75
2018-10-16T19:12:21.560Z,8.98
2018-10-16T19:14:49.972Z,10.55
2018-10-16T19:17:19.374Z,9.03
2018-10-16T19:19:47.797Z,10.10
2018-10-16T19:22:16.261Z,9.43
2018-10-16T19:24:44.654Z,9.25
2018-10-16T19:27:13.222Z,11.60
2018-10-16T19:29:41.583Z,10.75
2018-10-16T19:32:10.390Z,10.90
2018-10-16T19:34:38.845Z,11.90
2018-10-16T19:37:07.297Z,9.98
2018-10-16T19:39:35.770Z,11.57
2018-10-16T19:42:04.199Z,11.57
2018-10-16T19:44:32.703Z,10.45
2018-10-16T19:47:01.178Z,11.70
2018-10-16T19:49:29.564Z,9.75
2018-10-16T19:51:58.077Z,12.23
2018-10-16T19:54:26.477Z,11.20
2018-10-16T19:56:54.919Z,13.38
2018-10-16T19:59:23.343Z,10.25
2018-10-16T20:01:51.786Z,9.60
2018-10-16T20:04:19.892Z,11.03
2018-10-16T20:06:48.049Z,10.63
2018-10-16T20:09:16.543Z,10.05
2018-10-16T20:11:44.717Z,10.65
2018-10-16T20:14:13.218Z,12.03
2018-10-16T20:16:41.560Z,9.03
2018-10-16T20:19:09.980Z,7.05
2018-10-16T20:21:38.429Z,8.60
2018-10-16T20:24:06.865Z,7.90
2018-10-16T20:26:35.331Z,9.75
2018-10-16T20:29:03.814Z,8.00
2018-10-16T20:31:32.265Z,9.23
2018-10-16T20:34:00.714Z,8.25
2018-10-16T20:36:28.880Z,11.68
2018-10-16T20:38:57.296Z,7.42
2018-10-16T20:41:25.452Z,9.83
2018-10-16T20:43:53.857Z,9.78
2018-10-16T20:46:22.296Z,8.70
2018-10-16T20:48:50.432Z,10.05
2018-10-16T20:51:18.853Z,14.15
2018-10-16T20:53:47.290Z,9.18
2018-10-16T20:56:15.909Z,7.97
2018-10-16T20:58:44.375Z,12.45
2018-10-16T21:01:14.096Z,9.48
2018-10-16T21:03:42.638Z,7.85
2018-10-16T21:06:11.409Z,7.80
2018-10-16T21:08:39.516Z,8.58
2018-10-16T21:11:07.645Z,9.23
2018-10-16T21:13:36.337Z,9.28
2018-10-16T21:16:05.184Z,9.98
2018-10-16T21:18:33.646Z,9.23
2018-10-16T21:21:02.069Z,14.15
2018-10-16T21:23:30.498Z,10.35
2018-10-16T21:25:58.888Z,10.43
2018-10-16T21:28:27.748Z,9.25
2018-10-16T21:30:56.215Z,11.18
2018-10-16T21:33:24.896Z,7.15
2018-10-16T21:35:53.345Z,9.78
2018-10-16T21:38:21.464Z,10.70
2018-10-16T21:40:49.862Z,11.18
2018-10-16T21:43:18.329Z,9.53
2018-10-16T21:45:46.437Z,10.20
2018-10-16T21:48:14.664Z,9.68
2018-10-16T21:50:43.066Z,8.50
2018-10-16T21:53:11.900Z,8.03
2018-10-16T21:55:40.268Z,9.48
2018-10-16T21:58:08.696Z,9.25
2018-10-16T22:00:42.422Z,11.45
2018-10-16T22:03:10.845Z,12.10
2018-10-16T22:05:39.292Z,11.43
2018-10-16T22:08:07.823Z,9.88
2018-10-16T22:10:36.383Z,10.13
2018-10-16T22:13:09.039Z,9.35
2018-10-16T22:15:37.437Z,10.90
2018-10-16T22:18:06.087Z,8.75
2018-10-16T22:20:34.181Z,11.80
2018-10-16T22:23:02.942Z,8.50
2018-10-16T22:25:31.332Z,9.37
2018-10-16T22:27:59.816Z,9.78
2018-10-16T22:30:28.212Z,7.95
2018-10-16T22:32:56.604Z,11.00
2018-10-16T22:35:25.024Z,9.40
2018-10-16T22:37:53.132Z,8.10
2018-10-16T22:40:21.588Z,12.00
2018-10-16T22:42:49.988Z,12.13
2018-10-16T22:45:18.413Z,8.85
2018-10-16T22:47:46.833Z,8.55
2018-10-16T22:50:15.253Z,12.05
2018-10-16T22:52:43.676Z,8.23
2018-10-16T22:55:11.881Z,7.83
2018-10-16T22:57:40.381Z,8.63
2018-10-16T23:00:14.150Z,9.83
2018-10-16T23:02:42.796Z,8.00
2018-10-16T23:05:11.625Z,8.55
2018-10-16T23:07:40.343Z,8.88
2018-10-16T23:10:08.764Z,8.27
2018-10-16T23:12:37.226Z,9.20
2018-10-16T23:15:06.816Z,8.77
2018-10-16T23:17:35.259Z,10.20
2018-10-16T23:20:03.810Z,10.40
2018-10-16T23:22:32.214Z,7.70
2018-10-16T23:25:00.369Z,7.55
2018-10-16T23:27:28.770Z,7.73
2018-10-16T23:29:57.224Z,8.80
2018-10-16T23:32:25.612Z,7.50
2018-10-16T23:34:54.167Z,10.13
2018-10-16T23:37:22.630Z,8.15
2018-10-16T23:44:36.129Z,8.58
2018-10-16T23:47:04.605Z,9.40
2018-10-16T23:49:33.048Z,7.12
2018-10-16T23:52:01.460Z,8.33
2018-10-16T23:54:29.956Z,9.50
2018-10-16T23:56:58.402Z,8.37
2018-10-16T23:59:27.101Z,7.87
